sensor_id;sensor_type;location;lat;lon;timestamp;pressure;altitude;pressure_sealevel;temperature;humidity
63493;BME280;49638;47.526;10.028;2023-04-07T00:01:29;91660.00;;;4.49;58.21
63493;BME280;49638;47.526;10.028;2023-04-07T00:04:30;91647.94;;;4.48;58.26
63493;BME280;49638;47.526;10.028;2023-04-07T00:07:30;91657.78;;;4.53;58.15
63493;BME280;49638;47.526;10.028;2023-04-07T00:10:30;91650.97;;;4.45;58.16
63493;BME280;49638;47.526;10.028;2023-04-07T00:13:31;91652.94;;;4.50;58.44
63493;BME280;49638;47.526;10.028;2023-04-07T00:16:31;91650.75;;;4.47;58.82
63493;BME280;49638;47.526;10.028;2023-04-07T00:19:31;91639.91;;;4.37;58.53
63493;BME280;49638;47.526;10.028;2023-04-07T00:22:32;91651.56;;;4.41;59.28
63493;BME280;49638;47.526;10.028;2023-04-07T00:25:33;91652.59;;;4.40;59.39
63493;BME280;49638;47.526;10.028;2023-04-07T00:28:33;91643.75;;;4.34;59.54
63493;BME280;49638;47.526;10.028;2023-04-07T00:31:33;91647.78;;;4.37;59.60
63493;BME280;49638;47.526;10.028;2023-04-07T00:34:33;91626.47;;;4.26;59.75
63493;BME280;49638;47.526;10.028;2023-04-07T00:37:34;91639.53;;;4.33;59.78
63493;BME280;49638;47.526;10.028;2023-04-07T00:40:34;91627.09;;;4.29;59.70
63493;BME280;49638;47.526;10.028;2023-04-07T00:43:35;91631.47;;;4.35;60.29
63493;BME280;49638;47.526;10.028;2023-04-07T00:46:35;91631.69;;;4.33;59.85
63493;BME280;49638;47.526;10.028;2023-04-07T00:49:36;91625.84;;;4.31;60.07
63493;BME280;49638;47.526;10.028;2023-04-07T00:52:38;91614.81;;;4.29;60.22
63493;BME280;49638;47.526;10.028;2023-04-07T00:55:38;91605.53;;;4.26;60.15
63493;BME280;49638;47.526;10.028;2023-04-07T00:58:39;91605.53;;;4.33;60.58
63493;BME280;49638;47.526;10.028;2023-04-07T01:04:55;91593.84;;;4.36;61.42
63493;BME280;49638;47.526;10.028;2023-04-07T01:08:20;91586.56;;;4.38;61.20
63493;BME280;49638;47.526;10.028;2023-04-07T01:11:27;91576.13;;;4.31;60.10
63493;BME280;49638;47.526;10.028;2023-04-07T01:14:41;91573.31;;;4.33;60.71
63493;BME280;49638;47.526;10.028;2023-04-07T01:17:48;91562.06;;;4.32;60.20
63493;BME280;49638;47.526;10.028;2023-04-07T01:20:52;91550.19;;;4.30;60.43
63493;BME280;49638;47.526;10.028;2023-04-07T01:31:09;91552.00;;;4.29;61.27
63493;BME280;49638;47.526;10.028;2023-04-07T01:34:12;91563.06;;;4.31;60.91
63493;BME280;49638;47.526;10.028;2023-04-07T01:37:13;91556.22;;;4.30;60.98
63493;BME280;49638;47.526;10.028;2023-04-07T01:40:15;91558.28;;;4.28;61.08
63493;BME280;49638;47.526;10.028;2023-04-07T01:43:16;91559.88;;;4.29;60.92
63493;BME280;49638;47.526;10.028;2023-04-07T01:46:17;91571.69;;;4.38;61.09
63493;BME280;49638;47.526;10.028;2023-04-07T01:49:18;91549.19;;;4.31;61.29
63493;BME280;49638;47.526;10.028;2023-04-07T01:52:20;91553.56;;;4.37;61.22
63493;BME280;49638;47.526;10.028;2023-04-07T01:55:20;91556.81;;;4.39;61.75
63493;BME280;49638;47.526;10.028;2023-04-07T01:58:21;91530.28;;;4.29;61.98
63493;BME280;49638;47.526;10.028;2023-04-07T02:01:22;91533.91;;;4.27;62.24
63493;BME280;49638;47.526;10.028;2023-04-07T02:04:32;91547.31;;;4.38;63.88
63493;BME280;49638;47.526;10.028;2023-04-07T02:07:56;91549.56;;;4.34;64.76
63493;BME280;49638;47.526;10.028;2023-04-07T02:10:58;91537.72;;;4.32;62.86
63493;BME280;49638;47.526;10.028;2023-04-07T02:14:01;91520.03;;;4.27;63.03
63493;BME280;49638;47.526;10.028;2023-04-07T02:17:03;91528.25;;;4.31;62.97
63493;BME280;49638;47.526;10.028;2023-04-07T02:20:07;91517.03;;;4.23;63.04
63493;BME280;49638;47.526;10.028;2023-04-07T02:23:08;91512.97;;;4.27;63.07
63493;BME280;49638;47.526;10.028;2023-04-07T02:26:09;91520.41;;;4.31;63.06
63493;BME280;49638;47.526;10.028;2023-04-07T02:29:09;91506.13;;;4.26;63.00
63493;BME280;49638;47.526;10.028;2023-04-07T02:32:09;91511.56;;;4.32;63.16
63493;BME280;49638;47.526;10.028;2023-04-07T02:35:10;91504.50;;;4.32;63.10
63493;BME280;49638;47.526;10.028;2023-04-07T02:38:11;91489.44;;;4.27;63.00
63493;BME280;49638;47.526;10.028;2023-04-07T02:41:11;91490.25;;;4.28;63.18
63493;BME280;49638;47.526;10.028;2023-04-07T02:44:11;91492.66;;;4.30;63.25
63493;BME280;49638;47.526;10.028;2023-04-07T02:47:11;91495.25;;;4.30;63.20
63493;BME280;49638;47.526;10.028;2023-04-07T02:50:12;91480.78;;;4.27;63.31
63493;BME280;49638;47.526;10.028;2023-04-07T02:53:12;91485.97;;;4.34;63.43
63493;BME280;49638;47.526;10.028;2023-04-07T02:56:14;91474.72;;;4.33;63.59
63493;BME280;49638;47.526;10.028;2023-04-07T02:59:14;91469.09;;;4.30;63.78
63493;BME280;49638;47.526;10.028;2023-04-07T03:02:14;91473.31;;;4.31;64.03
63493;BME280;49638;47.526;10.028;2023-04-07T03:05:15;91462.09;;;4.23;64.27
63493;BME280;49638;47.526;10.028;2023-04-07T03:08:15;91469.09;;;4.30;64.33
63493;BME280;49638;47.526;10.028;2023-04-07T03:11:15;91454.25;;;4.23;63.92
63493;BME280;49638;47.526;10.028;2023-04-07T03:14:15;91448.22;;;4.23;64.02
63493;BME280;49638;47.526;10.028;2023-04-07T03:17:16;91440.59;;;4.21;64.10
63493;BME280;49638;47.526;10.028;2023-04-07T03:20:16;91441.78;;;4.25;64.52
63493;BME280;49638;47.526;10.028;2023-04-07T03:23:16;91447.94;;;4.31;64.58
63493;BME280;49638;47.526;10.028;2023-04-07T03:26:17;91449.75;;;4.31;64.57
63493;BME280;49638;47.526;10.028;2023-04-07T03:29:18;91438.16;;;4.20;64.64
63493;BME280;49638;47.526;10.028;2023-04-07T03:32:18;91443.16;;;4.28;64.51
63493;BME280;49638;47.526;10.028;2023-04-07T03:35:18;91433.69;;;4.27;64.75
63493;BME280;49638;47.526;10.028;2023-04-07T03:38:19;91430.88;;;4.29;64.80
63493;BME280;49638;47.526;10.028;2023-04-07T03:41:20;91443.31;;;4.33;64.71
63493;BME280;49638;47.526;10.028;2023-04-07T03:44:21;91438.09;;;4.33;64.65
63493;BME280;49638;47.526;10.028;2023-04-07T03:47:21;91434.44;;;4.34;64.70
63493;BME280;49638;47.526;10.028;2023-04-07T03:50:22;91423.59;;;4.31;64.71
63493;BME280;49638;47.526;10.028;2023-04-07T03:53:22;91417.00;;;4.28;64.66
63493;BME280;49638;47.526;10.028;2023-04-07T03:56:22;91422.44;;;4.26;64.54
63493;BME280;49638;47.526;10.028;2023-04-07T03:59:23;91433.06;;;4.32;64.48
63493;BME280;49638;47.526;10.028;2023-04-07T04:02:24;91425.28;;;4.25;64.26
63493;BME280;49638;47.526;10.028;2023-04-07T04:05:24;91430.88;;;4.29;64.35
63493;BME280;49638;47.526;10.028;2023-04-07T04:08:26;91419.50;;;4.16;64.55
63493;BME280;49638;47.526;10.028;2023-04-07T04:11:26;91422.09;;;4.16;64.71
63493;BME280;49638;47.526;10.028;2023-04-07T04:14:27;91429.78;;;4.11;64.72
63493;BME280;49638;47.526;10.028;2023-04-07T04:17:27;91418.41;;;3.99;64.95
63493;BME280;49638;47.526;10.028;2023-04-07T04:20:28;91420.59;;;4.02;64.88
63493;BME280;49638;47.526;10.028;2023-04-07T04:23:28;91419.00;;;4.01;65.04
63493;BME280;49638;47.526;10.028;2023-04-07T04:26:28;91426.41;;;4.04;65.12
63493;BME280;49638;47.526;10.028;2023-04-07T04:29:28;91422.59;;;4.00;65.29
63493;BME280;49638;47.526;10.028;2023-04-07T04:32:29;91409.56;;;3.93;65.39
63493;BME280;49638;47.526;10.028;2023-04-07T04:35:29;91417.78;;;3.97;65.59
63493;BME280;49638;47.526;10.028;2023-04-07T04:38:29;91401.34;;;3.90;65.59
63493;BME280;49638;47.526;10.028;2023-04-07T04:41:32;91399.34;;;3.92;65.43
63493;BME280;49638;47.526;10.028;2023-04-07T04:44:32;91394.53;;;3.89;65.17
63493;BME280;49638;47.526;10.028;2023-04-07T04:47:32;91392.56;;;3.84;65.15
63493;BME280;49638;47.526;10.028;2023-04-07T04:50:32;91391.34;;;3.80;65.07
63493;BME280;49638;47.526;10.028;2023-04-07T04:53:33;91372.13;;;3.68;65.17
63493;BME280;49638;47.526;10.028;2023-04-07T04:56:33;91382.41;;;3.63;65.02
63493;BME280;49638;47.526;10.028;2023-04-07T04:59:33;91386.41;;;3.65;65.09
63493;BME280;49638;47.526;10.028;2023-04-07T05:02:34;91369.78;;;3.53;65.14
63493;BME280;49638;47.526;10.028;2023-04-07T05:05:34;91387.47;;;3.58;65.01
63493;BME280;49638;47.526;10.028;2023-04-07T05:08:35;91390.28;;;3.56;65.00
63493;BME280;49638;47.526;10.028;2023-04-07T05:11:35;91381.91;;;3.47;64.81
63493;BME280;49638;47.526;10.028;2023-04-07T05:14:35;91376.31;;;3.37;64.91
63493;BME280;49638;47.526;10.028;2023-04-07T05:17:35;91395.34;;;3.51;65.19
63493;BME280;49638;47.526;10.028;2023-04-07T05:20:36;91394.72;;;3.49;65.48
63493;BME280;49638;47.526;10.028;2023-04-07T05:23:36;91387.50;;;3.51;65.37
63493;BME280;49638;47.526;10.028;2023-04-07T05:26:36;91388.91;;;3.53;65.54
63493;BME280;49638;47.526;10.028;2023-04-07T05:29:37;91404.13;;;3.56;65.61
63493;BME280;49638;47.526;10.028;2023-04-07T05:32:37;91396.25;;;3.63;65.78
63493;BME280;49638;47.526;10.028;2023-04-07T05:35:37;91392.25;;;3.67;65.58
63493;BME280;49638;47.526;10.028;2023-04-07T05:38:37;91390.59;;;3.73;65.65
63493;BME280;49638;47.526;10.028;2023-04-07T05:41:37;91384.75;;;3.77;65.73
63493;BME280;49638;47.526;10.028;2023-04-07T05:44:38;91387.84;;;3.93;65.68
63493;BME280;49638;47.526;10.028;2023-04-07T05:47:38;91385.81;;;4.01;65.50
63493;BME280;49638;47.526;10.028;2023-04-07T05:50:38;91381.16;;;4.03;65.35
63493;BME280;49638;47.526;10.028;2023-04-07T05:53:39;91396.13;;;4.21;65.28
63493;BME280;49638;47.526;10.028;2023-04-07T05:56:39;91385.66;;;4.21;65.05
63493;BME280;49638;47.526;10.028;2023-04-07T05:59:39;91392.38;;;4.36;65.29
63493;BME280;49638;47.526;10.028;2023-04-07T06:02:40;91384.84;;;4.46;65.43
63493;BME280;49638;47.526;10.028;2023-04-07T06:05:40;91379.19;;;4.49;65.29
63493;BME280;49638;47.526;10.028;2023-04-07T06:08:42;91387.13;;;4.61;65.43
63493;BME280;49638;47.526;10.028;2023-04-07T06:11:42;91395.97;;;4.66;65.37
63493;BME280;49638;47.526;10.028;2023-04-07T06:14:49;91395.31;;;4.71;65.12
63493;BME280;49638;47.526;10.028;2023-04-07T06:17:50;91385.63;;;4.71;64.80
63493;BME280;49638;47.526;10.028;2023-04-07T06:20:50;91394.22;;;4.79;64.48
63493;BME280;49638;47.526;10.028;2023-04-07T06:23:51;91382.00;;;4.72;64.64
63493;BME280;49638;47.526;10.028;2023-04-07T06:26:51;91383.31;;;4.82;64.57
63493;BME280;49638;47.526;10.028;2023-04-07T06:29:52;91379.69;;;4.83;64.54
63493;BME280;49638;47.526;10.028;2023-04-07T06:32:52;91371.97;;;4.88;64.54
63493;BME280;49638;47.526;10.028;2023-04-07T06:35:52;91379.69;;;5.01;64.24
63493;BME280;49638;47.526;10.028;2023-04-07T06:38:53;91381.03;;;5.10;64.07
63493;BME280;49638;47.526;10.028;2023-04-07T06:41:53;91360.06;;;5.10;64.04
63493;BME280;49638;47.526;10.028;2023-04-07T06:44:53;91380.09;;;5.23;63.92
63493;BME280;49638;47.526;10.028;2023-04-07T06:47:53;91369.50;;;5.30;63.72
63493;BME280;49638;47.526;10.028;2023-04-07T06:50:54;91372.63;;;5.38;63.73
63493;BME280;49638;47.526;10.028;2023-04-07T06:53:54;91361.47;;;5.43;63.51
63493;BME280;49638;47.526;10.028;2023-04-07T06:56:54;91347.28;;;5.51;63.21
63493;BME280;49638;47.526;10.028;2023-04-07T06:59:56;91353.00;;;5.59;63.00
63493;BME280;49638;47.526;10.028;2023-04-07T07:02:56;91362.44;;;5.79;62.88
63493;BME280;49638;47.526;10.028;2023-04-07T07:05:58;91363.16;;;5.86;62.82
63493;BME280;49638;47.526;10.028;2023-04-07T07:08:58;91353.25;;;5.88;62.76
63493;BME280;49638;47.526;10.028;2023-04-07T07:11:59;91356.28;;;6.03;62.70
63493;BME280;49638;47.526;10.028;2023-04-07T07:15:01;91362.34;;;6.15;62.35
63493;BME280;49638;47.526;10.028;2023-04-07T07:18:02;91360.44;;;6.23;62.05
63493;BME280;49638;47.526;10.028;2023-04-07T07:21:03;91359.28;;;6.30;61.85
63493;BME280;49638;47.526;10.028;2023-04-07T07:24:04;91363.88;;;6.47;61.46
63493;BME280;49638;47.526;10.028;2023-04-07T07:27:04;91365.72;;;6.58;61.23
63493;BME280;49638;47.526;10.028;2023-04-07T07:30:05;91359.56;;;6.64;61.32
63493;BME280;49638;47.526;10.028;2023-04-07T07:33:05;91352.59;;;6.70;61.24
63493;BME280;49638;47.526;10.028;2023-04-07T07:36:07;91370.28;;;6.86;60.97
63493;BME280;49638;47.526;10.028;2023-04-07T07:39:07;91365.38;;;7.01;60.67
63493;BME280;49638;47.526;10.028;2023-04-07T07:42:07;91362.84;;;7.06;60.49
63493;BME280;49638;47.526;10.028;2023-04-07T07:45:08;91353.72;;;7.21;60.60
63493;BME280;49638;47.526;10.028;2023-04-07T07:48:08;91361.22;;;7.29;60.40
63493;BME280;49638;47.526;10.028;2023-04-07T07:51:08;91358.91;;;7.44;60.08
63493;BME280;49638;47.526;10.028;2023-04-07T07:54:08;91363.66;;;7.59;59.67
63493;BME280;49638;47.526;10.028;2023-04-07T07:57:09;91351.69;;;7.80;59.55
63493;BME280;49638;47.526;10.028;2023-04-07T08:00:10;91363.16;;;8.02;59.05
63493;BME280;49638;47.526;10.028;2023-04-07T08:03:11;91358.56;;;8.10;58.48
63493;BME280;49638;47.526;10.028;2023-04-07T08:06:11;91361.69;;;8.23;58.14
63493;BME280;49638;47.526;10.028;2023-04-07T08:09:12;91349.91;;;8.26;57.45
63493;BME280;49638;47.526;10.028;2023-04-07T08:12:12;91351.31;;;8.34;56.99
63493;BME280;49638;47.526;10.028;2023-04-07T08:15:12;91344.94;;;8.29;56.92
63493;BME280;49638;47.526;10.028;2023-04-07T08:18:15;91333.13;;;8.32;56.43
63493;BME280;49638;47.526;10.028;2023-04-07T08:21:15;91343.53;;;8.39;56.28
63493;BME280;49638;47.526;10.028;2023-04-07T08:24:15;91324.22;;;8.33;55.96
63493;BME280;49638;47.526;10.028;2023-04-07T08:27:16;91338.94;;;8.46;56.13
63493;BME280;49638;47.526;10.028;2023-04-07T08:30:16;91353.13;;;8.62;55.86
63493;BME280;49638;47.526;10.028;2023-04-07T08:33:16;91346.91;;;8.68;55.65
63493;BME280;49638;47.526;10.028;2023-04-07T08:36:17;91339.00;;;8.68;55.62
63493;BME280;49638;47.526;10.028;2023-04-07T08:39:17;91342.25;;;8.75;55.27
63493;BME280;49638;47.526;10.028;2023-04-07T08:42:18;91338.03;;;8.74;55.01
63493;BME280;49638;47.526;10.028;2023-04-07T08:45:20;91336.94;;;8.70;55.08
63493;BME280;49638;47.526;10.028;2023-04-07T08:48:22;91341.63;;;8.68;54.88
63493;BME280;49638;47.526;10.028;2023-04-07T08:51:30;91339.47;;;8.65;53.04
63493;BME280;49638;47.526;10.028;2023-04-07T08:54:31;91343.69;;;8.66;54.38
63493;BME280;49638;47.526;10.028;2023-04-07T08:57:33;91341.16;;;8.71;54.15
63493;BME280;49638;47.526;10.028;2023-04-07T09:00:34;91340.09;;;8.72;53.85
63493;BME280;49638;47.526;10.028;2023-04-07T09:03:34;91332.50;;;8.75;54.18
63493;BME280;49638;47.526;10.028;2023-04-07T09:06:35;91349.91;;;8.93;54.05
63493;BME280;49638;47.526;10.028;2023-04-07T09:09:36;91336.75;;;8.93;54.34
63493;BME280;49638;47.526;10.028;2023-04-07T09:12:36;91340.53;;;9.03;54.19
63493;BME280;49638;47.526;10.028;2023-04-07T09:15:37;91345.41;;;9.11;54.29
63493;BME280;49638;47.526;10.028;2023-04-07T09:18:37;91345.41;;;9.11;54.20
63493;BME280;49638;47.526;10.028;2023-04-07T09:21:49;91350.81;;;9.21;52.62
63493;BME280;49638;47.526;10.028;2023-04-07T09:24:50;91336.59;;;9.22;54.15
63493;BME280;49638;47.526;10.028;2023-04-07T09:27:58;91331.88;;;9.24;52.08
63493;BME280;49638;47.526;10.028;2023-04-07T09:30:59;91343.59;;;9.33;53.79
63493;BME280;49638;47.526;10.028;2023-04-07T09:33:59;91340.47;;;9.36;53.78
63493;BME280;49638;47.526;10.028;2023-04-07T09:37:00;91343.72;;;9.43;53.81
63493;BME280;49638;47.526;10.028;2023-04-07T09:40:01;91338.13;;;9.40;53.23
63493;BME280;49638;47.526;10.028;2023-04-07T09:43:03;91348.28;;;9.48;53.06
63493;BME280;49638;47.526;10.028;2023-04-07T09:49:10;91339.53;;;9.47;53.27
63493;BME280;49638;47.526;10.028;2023-04-07T09:52:11;91346.25;;;9.55;53.28
63493;BME280;49638;47.526;10.028;2023-04-07T09:55:12;91337.72;;;9.48;53.39
63493;BME280;49638;47.526;10.028;2023-04-07T09:58:13;91332.38;;;9.43;53.20
63493;BME280;49638;47.526;10.028;2023-04-07T10:01:15;91346.59;;;9.64;53.25
63493;BME280;49638;47.526;10.028;2023-04-07T10:04:16;91340.91;;;9.72;52.74
63493;BME280;49638;47.526;10.028;2023-04-07T10:07:16;91324.50;;;9.70;52.90
63493;BME280;49638;47.526;10.028;2023-04-07T10:10:17;91320.81;;;9.71;52.76
63493;BME280;49638;47.526;10.028;2023-04-07T10:13:18;91329.66;;;9.82;52.87
63493;BME280;49638;47.526;10.028;2023-04-07T10:16:21;91338.22;;;9.94;52.87
63493;BME280;49638;47.526;10.028;2023-04-07T10:19:22;91334.00;;;9.93;52.85
63493;BME280;49638;47.526;10.028;2023-04-07T10:22:24;91333.75;;;9.94;52.39
63493;BME280;49638;47.526;10.028;2023-04-07T10:25:26;91332.72;;;9.95;52.22
63493;BME280;49638;47.526;10.028;2023-04-07T10:28:27;91326.88;;;9.93;52.45
63493;BME280;49638;47.526;10.028;2023-04-07T10:31:30;91330.28;;;9.89;52.40
63493;BME280;49638;47.526;10.028;2023-04-07T10:38:09;91324.59;;;10.02;49.54
63493;BME280;49638;47.526;10.028;2023-04-07T10:41:39;91327.38;;;10.17;49.50
63493;BME280;49638;47.526;10.028;2023-04-07T10:44:43;91330.06;;;10.23;52.29
63493;BME280;49638;47.526;10.028;2023-04-07T10:54:14;91332.31;;;10.36;50.37
63493;BME280;49638;47.526;10.028;2023-04-07T10:57:15;91332.88;;;10.38;51.75
63493;BME280;49638;47.526;10.028;2023-04-07T11:00:17;91326.63;;;10.22;51.16
63493;BME280;49638;47.526;10.028;2023-04-07T11:03:17;91338.22;;;10.21;51.37
63493;BME280;49638;47.526;10.028;2023-04-07T11:06:18;91326.97;;;10.04;51.04
63493;BME280;49638;47.526;10.028;2023-04-07T11:09:18;91339.13;;;10.05;51.18
63493;BME280;49638;47.526;10.028;2023-04-07T11:12:23;91338.59;;;10.03;50.95
63493;BME280;49638;47.526;10.028;2023-04-07T11:15:23;91338.59;;;10.03;51.89
63493;BME280;49638;47.526;10.028;2023-04-07T11:18:24;91337.34;;;10.10;52.08
63493;BME280;49638;47.526;10.028;2023-04-07T11:21:25;91339.50;;;10.13;52.19
63493;BME280;49638;47.526;10.028;2023-04-07T11:24:34;91330.97;;;10.06;51.64
63493;BME280;49638;47.526;10.028;2023-04-07T11:27:37;91334.13;;;10.08;52.52
63493;BME280;49638;47.526;10.028;2023-04-07T11:30:38;91340.09;;;10.21;52.54
63493;BME280;49638;47.526;10.028;2023-04-07T11:33:38;91332.53;;;10.29;52.76
63493;BME280;49638;47.526;10.028;2023-04-07T11:36:40;91338.44;;;10.41;52.62
63493;BME280;49638;47.526;10.028;2023-04-07T11:39:40;91338.53;;;10.52;52.14
63493;BME280;49638;47.526;10.028;2023-04-07T11:42:41;91326.91;;;10.53;51.78
63493;BME280;49638;47.526;10.028;2023-04-07T11:45:41;91325.47;;;10.67;51.73
63493;BME280;49638;47.526;10.028;2023-04-07T11:48:43;91332.41;;;10.78;51.44
63493;BME280;49638;47.526;10.028;2023-04-07T11:51:44;91336.69;;;10.84;51.17
63493;BME280;49638;47.526;10.028;2023-04-07T11:54:45;91336.47;;;10.91;51.04
63493;BME280;49638;47.526;10.028;2023-04-07T11:57:46;91332.75;;;10.87;51.06
63493;BME280;49638;47.526;10.028;2023-04-07T12:01:01;91333.28;;;10.89;49.45
63493;BME280;49638;47.526;10.028;2023-04-07T12:04:04;91336.19;;;10.93;51.03
63493;BME280;49638;47.526;10.028;2023-04-07T12:07:06;91336.19;;;10.87;51.17
63493;BME280;49638;47.526;10.028;2023-04-07T12:10:23;91334.34;;;10.88;49.22
63493;BME280;49638;47.526;10.028;2023-04-07T12:13:26;91328.75;;;10.84;51.28
63493;BME280;49638;47.526;10.028;2023-04-07T12:16:27;91339.41;;;10.95;50.62
63493;BME280;49638;47.526;10.028;2023-04-07T12:19:30;91340.44;;;10.94;49.99
63493;BME280;49638;47.526;10.028;2023-04-07T12:22:34;91322.13;;;10.82;49.87
63493;BME280;49638;47.526;10.028;2023-04-07T12:25:34;91331.41;;;10.89;49.81
63493;BME280;49638;47.526;10.028;2023-04-07T12:28:35;91334.56;;;10.86;49.76
63493;BME280;49638;47.526;10.028;2023-04-07T12:31:36;91325.03;;;10.80;50.51
63493;BME280;49638;47.526;10.028;2023-04-07T12:34:37;91337.72;;;10.83;50.70
63493;BME280;49638;47.526;10.028;2023-04-07T12:37:38;91338.47;;;10.74;50.56
63493;BME280;49638;47.526;10.028;2023-04-07T12:40:38;91343.13;;;10.61;50.97
63493;BME280;49638;47.526;10.028;2023-04-07T12:43:38;91332.25;;;10.58;51.07
63493;BME280;49638;47.526;10.028;2023-04-07T12:46:39;91335.38;;;10.50;50.85
63493;BME280;49638;47.526;10.028;2023-04-07T12:49:39;91340.44;;;10.56;50.84
63493;BME280;49638;47.526;10.028;2023-04-07T12:52:40;91336.94;;;10.51;50.64
63493;BME280;49638;47.526;10.028;2023-04-07T12:55:40;91341.09;;;10.41;51.15
63493;BME280;49638;47.526;10.028;2023-04-07T12:58:41;91357.41;;;10.33;51.22
63493;BME280;49638;47.526;10.028;2023-04-07T13:01:41;91357.28;;;10.23;51.19
63493;BME280;49638;47.526;10.028;2023-04-07T13:04:42;91353.19;;;10.10;51.05
63493;BME280;49638;47.526;10.028;2023-04-07T13:07:45;91342.13;;;9.86;51.49
63493;BME280;49638;47.526;10.028;2023-04-07T13:10:46;91336.94;;;9.75;51.86
63493;BME280;49638;47.526;10.028;2023-04-07T13:13:46;91359.00;;;9.63;52.12
63493;BME280;49638;47.526;10.028;2023-04-07T13:16:46;91365.25;;;9.57;52.19
63493;BME280;49638;47.526;10.028;2023-04-07T13:19:46;91365.91;;;9.47;52.50
63493;BME280;49638;47.526;10.028;2023-04-07T13:22:47;91369.56;;;9.41;52.54
63493;BME280;49638;47.526;10.028;2023-04-07T13:25:47;91346.72;;;9.30;52.52
63493;BME280;49638;47.526;10.028;2023-04-07T13:28:47;91353.81;;;9.30;52.69
63493;BME280;49638;47.526;10.028;2023-04-07T13:31:48;91365.25;;;9.35;52.71
63493;BME280;49638;47.526;10.028;2023-04-07T13:34:48;91356.22;;;9.31;53.03
63493;BME280;49638;47.526;10.028;2023-04-07T13:37:48;91351.66;;;9.27;53.22
63493;BME280;49638;47.526;10.028;2023-04-07T13:40:49;91364.69;;;9.33;53.20
63493;BME280;49638;47.526;10.028;2023-04-07T13:43:49;91360.88;;;9.24;53.51
63493;BME280;49638;47.526;10.028;2023-04-07T13:46:50;91378.28;;;9.25;53.68
63493;BME280;49638;47.526;10.028;2023-04-07T13:49:50;91375.56;;;9.20;54.22
63493;BME280;49638;47.526;10.028;2023-04-07T13:52:53;91383.44;;;9.15;54.60
63493;BME280;49638;47.526;10.028;2023-04-07T13:55:53;91384.06;;;9.05;54.95
63493;BME280;49638;47.526;10.028;2023-04-07T13:58:53;91384.72;;;8.95;54.98
63493;BME280;49638;47.526;10.028;2023-04-07T14:01:54;91387.78;;;8.87;55.78
63493;BME280;49638;47.526;10.028;2023-04-07T14:04:54;91381.25;;;8.73;56.33
63493;BME280;49638;47.526;10.028;2023-04-07T14:07:55;91384.81;;;8.67;56.44
63493;BME280;49638;47.526;10.028;2023-04-07T14:10:55;91385.78;;;8.61;56.73
63493;BME280;49638;47.526;10.028;2023-04-07T14:13:55;91390.94;;;8.56;57.15
63493;BME280;49638;47.526;10.028;2023-04-07T14:16:56;91401.97;;;8.52;57.40
63493;BME280;49638;47.526;10.028;2023-04-07T14:19:56;91399.25;;;8.47;57.72
63493;BME280;49638;47.526;10.028;2023-04-07T14:22:57;91395.50;;;8.43;57.81
63493;BME280;49638;47.526;10.028;2023-04-07T14:25:58;91394.38;;;8.39;58.02
63493;BME280;49638;47.526;10.028;2023-04-07T14:28:58;91391.75;;;8.39;58.67
63493;BME280;49638;47.526;10.028;2023-04-07T14:31:58;91392.28;;;8.41;59.15
63493;BME280;49638;47.526;10.028;2023-04-07T14:34:58;91394.78;;;8.48;59.79
63493;BME280;49638;47.526;10.028;2023-04-07T14:37:59;91380.09;;;8.52;60.22
63493;BME280;49638;47.526;10.028;2023-04-07T14:40:59;91386.34;;;8.63;60.53
63493;BME280;49638;47.526;10.028;2023-04-07T14:44:01;91380.25;;;8.62;60.77
63493;BME280;49638;47.526;10.028;2023-04-07T14:47:02;91376.44;;;8.70;60.70
63493;BME280;49638;47.526;10.028;2023-04-07T14:50:02;91373.00;;;8.69;60.64
63493;BME280;49638;47.526;10.028;2023-04-07T14:53:02;91375.63;;;8.69;60.72
63493;BME280;49638;47.526;10.028;2023-04-07T14:56:04;91380.72;;;8.76;60.88
63493;BME280;49638;47.526;10.028;2023-04-07T14:59:05;91389.22;;;8.78;61.05
63493;BME280;49638;47.526;10.028;2023-04-07T15:02:05;91380.88;;;8.69;61.07
63493;BME280;49638;47.526;10.028;2023-04-07T15:05:06;91398.16;;;8.77;60.83
63493;BME280;49638;47.526;10.028;2023-04-07T15:08:06;91392.16;;;8.65;61.02
63493;BME280;49638;47.526;10.028;2023-04-07T15:11:06;91405.47;;;8.58;61.26
63493;BME280;49638;47.526;10.028;2023-04-07T15:14:07;91407.88;;;8.43;61.74
63493;BME280;49638;47.526;10.028;2023-04-07T15:17:07;91407.09;;;8.30;61.86
63493;BME280;49638;47.526;10.028;2023-04-07T15:20:08;91417.81;;;8.12;62.01
63493;BME280;49638;47.526;10.028;2023-04-07T15:23:08;91426.59;;;7.89;62.16
63493;BME280;49638;47.526;10.028;2023-04-07T15:26:09;91418.56;;;7.55;62.47
63493;BME280;49638;47.526;10.028;2023-04-07T15:29:09;91444.75;;;7.50;62.95
63493;BME280;49638;47.526;10.028;2023-04-07T15:32:09;91443.75;;;7.28;63.58
63493;BME280;49638;47.526;10.028;2023-04-07T15:35:10;91449.47;;;7.01;63.98
63493;BME280;49638;47.526;10.028;2023-04-07T15:38:10;91436.19;;;6.73;64.49
63493;BME280;49638;47.526;10.028;2023-04-07T15:41:14;91442.69;;;6.70;66.00
63493;BME280;49638;47.526;10.028;2023-04-07T15:44:18;91452.59;;;6.68;65.24
63493;BME280;49638;47.526;10.028;2023-04-07T15:47:18;91451.22;;;6.54;65.75
63493;BME280;49638;47.526;10.028;2023-04-07T15:50:18;91448.00;;;6.40;66.07
63493;BME280;49638;47.526;10.028;2023-04-07T15:53:18;91443.38;;;6.24;66.87
63493;BME280;49638;47.526;10.028;2023-04-07T15:56:19;91440.47;;;6.13;67.42
63493;BME280;49638;47.526;10.028;2023-04-07T15:59:22;91448.00;;;6.10;67.60
63493;BME280;49638;47.526;10.028;2023-04-07T16:02:22;91455.06;;;6.09;67.86
63493;BME280;49638;47.526;10.028;2023-04-07T16:05:22;91432.44;;;5.97;68.54
63493;BME280;49638;47.526;10.028;2023-04-07T16:08:22;91455.16;;;6.03;68.36
63493;BME280;49638;47.526;10.028;2023-04-07T16:11:23;91452.47;;;5.91;68.87
63493;BME280;49638;47.526;10.028;2023-04-07T16:14:23;91456.31;;;5.88;68.77
63493;BME280;49638;47.526;10.028;2023-04-07T16:17:27;91459.09;;;5.93;68.91
63493;BME280;49638;47.526;10.028;2023-04-07T16:20:28;91477.19;;;6.02;69.00